Time;durP1;ratioP1;P1;durP2;ratioP2;P2;SDS_P1;SDS_P2;PMS_P1;PMS_P2;Temp;Humidity;BMP_temperature;BMP_pressure;BME280_temperature;BME280_humidity;BME280_pressure;Samples;Min_cycle;Max_cycle;Signal;HPM_P1;HPM_P2
2022/09/05 00:02:16;;;;;;;12.95;3.92;;;;;;;26.58;45.02;101156.97;5093313;28;20120;-51
2022/09/05 00:04:47;;;;;;;12.40;3.10;;;;;;;26.64;44.89;101154.38;5093186;28;20036;-49
2022/09/05 00:07:21;;;;;;;10.95;2.85;;;;;;;26.61;45.02;101145.59;5075440;28;20032;-48
2022/09/05 00:10:09;;;;;;;10.95;3.25;;;;;;;26.61;44.99;101145.59;5075062;28;20024;-49
2022/09/05 00:12:40;;;;;;;12.98;3.70;;;;;;;26.62;44.77;101139.47;5092977;28;20058;-50
2022/09/05 00:15:39;;;;;;;14.13;3.45;;;;;;;26.59;44.87;101136.81;5075408;28;20380;-51
2022/09/05 00:18:36;;;;;;;11.18;2.50;;;;;;;26.61;44.70;101145.59;5058370;28;20388;-48
2022/09/05 00:21:24;;;;;;;11.02;2.92;;;;;;;26.61;44.88;101142.97;5077682;28;20173;-47
2022/09/05 00:23:53;;;;;;;12.35;3.10;;;;;;;26.64;44.86;101149.13;5083186;28;20058;-51
2022/09/05 00:26:44;;;;;;;14.13;3.67;;;;;;;26.56;44.77;101142.94;5092804;28;20032;-51
2022/09/05 00:29:24;;;;;;;12.65;3.38;;;;;;;26.56;44.89;101147.31;5074735;28;20042;-50
2022/09/05 00:32:07;;;;;;;9.18;3.15;;;;;;;26.51;45.10;101148.16;5092753;28;20427;-47
2022/09/05 00:35:07;;;;;;;9.95;3.10;;;;;;;26.53;45.01;101146.44;5058382;28;20036;-49
2022/09/05 00:37:39;;;;;;;13.15;3.83;;;;;;;26.49;45.14;101139.38;5083012;28;20051;-48
2022/09/05 00:40:25;;;;;;;12.02;4.03;;;;;;;26.53;45.09;101141.16;5075028;28;20427;-48
2022/09/05 00:42:56;;;;;;;13.88;3.35;;;;;;;26.55;45.05;101138.56;5092596;28;20431;-48
2022/09/05 00:45:46;;;;;;;14.20;3.42;;;;;;;26.50;45.21;101135.88;5092687;28;20119;-47
2022/09/05 00:48:22;;;;;;;9.80;3.55;;;;;;;26.53;44.99;101135.03;5074524;28;20036;-49
2022/09/05 00:51:22;;;;;;;15.13;3.35;;;;;;;26.51;45.11;101126.25;5074896;28;20028;-47
2022/09/05 00:54:09;;;;;;;12.32;4.32;;;;;;;26.56;45.05;101142.94;5092461;28;20024;-49
2022/09/05 00:57:03;;;;;;;9.93;3.10;;;;;;;26.50;45.13;101146.41;5092654;28;20115;-48
2022/09/05 01:00:10;;;;;;;11.05;2.70;;;;;;;26.50;45.35;101140.28;5078790;28;20031;-48
2022/09/05 01:02:45;;;;;;;13.45;3.25;;;;;;;26.54;45.12;101144.69;5098107;28;20044;-52
2022/09/05 01:05:31;;;;;;;13.48;3.50;;;;;;;26.47;45.17;101141.16;5096601;28;20435;-53
2022/09/05 01:08:09;;;;;;;12.55;3.22;;;;;;;26.45;45.39;101149.91;5078467;28;20059;-51
2022/09/05 01:11:15;;;;;;;16.08;3.75;;;;;;;26.45;45.35;101148.16;5096543;28;20032;-48
2022/09/05 01:14:11;;;;;;;10.88;3.38;;;;;;;26.46;45.44;101144.66;5088286;28;20032;-48
2022/09/05 01:16:59;;;;;;;15.48;4.47;;;;;;;26.43;45.47;101147.28;5086313;28;20477;-47
2022/09/05 01:19:28;;;;;;;15.23;3.53;;;;;;;26.47;45.38;101129.75;5085641;28;20451;-49
2022/09/05 01:22:15;;;;;;;11.38;3.58;;;;;;;26.46;45.33;101126.25;5096281;28;20107;-50
2022/09/05 01:25:22;;;;;;;12.68;3.25;;;;;;;26.47;45.20;101140.25;5078454;28;20031;-50
2022/09/05 01:28:16;;;;;;;13.60;3.65;;;;;;;26.48;45.24;101140.25;5078628;28;20452;-49
2022/09/05 01:30:51;;;;;;;14.68;4.05;;;;;;;26.51;45.17;101148.16;5078309;28;20093;-48
2022/09/05 01:33:22;;;;;;;;;;;;;;;26.54;45.15;101145.56;5078747;28;20035;-48
2022/09/05 01:35:55;;;;;;;9.93;3.40;;;;;;;26.48;44.82;101136.75;5096436;28;19957;-51
2022/09/05 01:38:34;;;;;;;13.95;3.22;;;;;;;26.48;45.02;101150.78;5096317;28;20020;-51
2022/09/05 01:41:22;;;;;;;14.20;3.70;;;;;;;26.48;45.01;101152.53;5095928;28;20481;-49
2022/09/05 01:44:13;;;;;;;12.68;3.58;;;;;;;26.46;45.08;101146.41;5095985;28;20028;-51
2022/09/05 01:47:01;;;;;;;14.57;4.45;;;;;;;26.47;44.84;101153.41;5077820;28;20025;-47
2022/09/05 01:50:07;;;;;;;10.40;3.42;;;;;;;26.42;45.04;101163.03;5085818;28;20439;-49
2022/09/05 01:52:55;;;;;;;13.30;3.90;;;;;;;26.43;45.33;101160.41;5088979;28;20485;-47
2022/09/05 01:56:02;;;;;;;9.93;2.83;;;;;;;26.45;45.10;101169.19;5095579;28;20032;-49
2022/09/05 01:59:03;;;;;;;12.18;2.88;;;;;;;26.44;45.10;101164.81;5076658;28;20439;-50
2022/09/05 02:02:00;;;;;;;10.45;3.38;;;;;;;26.39;45.11;101169.16;5095785;28;20020;-52
2022/09/05 02:04:28;;;;;;;11.23;2.78;;;;;;;26.46;45.19;101164.81;5090139;28;20040;-48
2022/09/05 02:07:21;;;;;;;9.68;3.17;;;;;;;26.46;44.98;101170.97;5095415;28;20036;-49
2022/09/05 02:09:53;;;;;;;16.17;3.25;;;;;;;26.48;45.04;101169.19;5085860;28;20040;-52
2022/09/05 02:12:31;;;;;;;14.98;4.25;;;;;;;26.46;45.12;101170.06;5094803;28;20439;-48
2022/09/05 02:15:03;;;;;;;15.07;3.50;;;;;;;26.43;44.88;101164.78;5095558;28;20433;-48
2022/09/05 02:17:52;;;;;;;14.50;3.92;;;;;;;26.39;45.20;101162.13;5094904;28;20032;-52
2022/09/05 02:20:31;;;;;;;18.13;3.45;;;;;;;26.39;45.21;101150.75;5094632;28;20042;-52
2022/09/05 02:23:08;;;;;;;10.38;3.38;;;;;;;26.35;45.28;101156.84;5095495;28;20024;-51
2022/09/05 02:25:45;;;;;;;13.40;3.53;;;;;;;26.37;45.22;101170.91;5095338;28;20043;-49
2022/09/05 02:28:51;;;;;;;11.38;3.33;;;;;;;26.37;45.27;101178.78;5077288;28;20038;-50
2022/09/05 02:31:44;;;;;;;15.98;2.92;;;;;;;26.39;45.31;101188.44;5087945;28;20036;-49
2022/09/05 02:34:40;;;;;;;14.70;3.47;;;;;;;26.42;45.31;101181.44;5077431;28;20028;-47
2022/09/05 02:37:31;;;;;;;14.98;3.53;;;;;;;26.42;45.33;101181.44;5094852;28;20476;-48
2022/09/05 02:40:17;;;;;;;12.85;3.45;;;;;;;26.43;45.37;101180.56;5083590;28;20093;-47
2022/09/05 02:43:05;;;;;;;17.10;3.63;;;;;;;26.35;45.61;101177.88;5076838;28;20020;-48
2022/09/05 02:46:01;;;;;;;15.20;3.38;;;;;;;26.34;45.30;101177.03;5085675;28;20470;-49
2022/09/05 02:49:03;;;;;;;12.52;2.95;;;;;;;26.32;45.46;101173.50;5083698;28;20378;-48
2022/09/05 02:51:49;;;;;;;13.38;3.15;;;;;;;26.37;45.30;101163.00;5094339;28;20028;-47
2022/09/05 02:54:21;;;;;;;11.60;3.45;;;;;;;26.35;45.53;101155.13;5076688;28;20028;-48
2022/09/05 02:57:08;;;;;;;12.20;3.47;;;;;;;26.40;45.42;101165.66;5076589;28;20036;-48
2022/09/05 03:00:10;;;;;;;13.70;3.60;;;;;;;26.41;45.38;101167.41;5094441;28;20047;-49
2022/09/05 03:03:09;;;;;;;10.38;3.28;;;;;;;26.32;45.56;101157.72;5087623;28;20032;-46
2022/09/05 03:05:51;;;;;;;11.93;3.17;;;;;;;26.29;45.74;101160.31;5087748;28;20133;-50
2022/09/05 03:08:45;;;;;;;12.93;3.63;;;;;;;26.34;45.55;101160.34;5094082;28;20396;-50
2022/09/05 03:11:30;;;;;;;11.65;3.05;;;;;;;26.30;45.90;101155.97;5068767;28;20133;-51
2022/09/05 03:14:05;;;;;;;;;;;;;;;26.31;45.93;101160.34;5094666;28;20036;-51
2022/09/05 03:16:37;;;;;;;16.88;3.97;;;;;;;26.39;45.54;101158.63;5076350;28;19946;-52
2022/09/05 03:19:25;;;;;;;15.23;4.00;;;;;;;26.32;46.08;101152.47;5094111;28;20028;-49
2022/09/05 03:22:31;;;;;;;16.60;3.22;;;;;;;26.28;46.09;101147.19;5084867;28;20044;-47
2022/09/05 03:25:16;;;;;;;18.25;3.65;;;;;;;26.32;46.00;101148.94;5076225;28;20028;-51
2022/09/05 03:28:03;;;;;;;13.27;3.50;;;;;;;26.36;46.16;101149.00;5076239;28;20031;-48
2022/09/05 03:31:07;;;;;;;17.13;3.67;;;;;;;26.36;46.09;101142.84;5083519;28;20028;-50
2022/09/05 03:34:15;;;;;;;14.00;3.80;;;;;;;26.43;45.89;101149.00;5084645;28;20443;-49
2022/09/05 03:37:06;;;;;;;15.80;4.28;;;;;;;26.46;46.00;101151.66;5087950;28;20435;-48
2022/09/05 03:40:00;;;;;;;16.55;3.92;;;;;;;26.45;46.07;101152.53;5084365;28;20040;-49
2022/09/05 03:42:28;;;;;;;12.35;3.60;;;;;;;26.49;45.79;101149.91;5069100;28;20032;-48
2022/09/05 03:45:04;;;;;;;18.20;3.92;;;;;;;26.46;45.92;101152.56;5093662;28;20030;-51
2022/09/05 03:47:52;;;;;;;13.70;3.60;;;;;;;26.44;46.21;101149.03;5075663;28;20062;-52
2022/09/05 03:50:58;;;;;;;18.80;4.18;;;;;;;26.36;46.50;101140.19;5067181;28;20092;-50
2022/09/05 03:53:27;;;;;;;15.70;3.58;;;;;;;26.35;46.50;101144.59;5092426;28;20027;-49
2022/09/05 03:56:01;;;;;;;16.80;4.20;;;;;;;26.33;46.57;101135.81;5093353;28;20060;-52
2022/09/05 03:58:53;;;;;;;17.38;4.18;;;;;;;26.33;46.71;101141.06;5093530;28;20388;-49
2022/09/05 04:01:25;;;;;;;11.70;3.53;;;;;;;26.33;46.83;101141.06;5075232;28;20492;-52
2022/09/05 04:04:00;;;;;;;14.65;3.95;;;;;;;26.38;46.48;101142.00;5093131;28;20485;-48
2022/09/05 04:06:44;;;;;;;16.48;4.63;;;;;;;26.43;46.51;101133.22;5075403;28;20024;-49
2022/09/05 04:09:17;;;;;;;16.05;3.97;;;;;;;26.36;46.77;101130.56;5093054;28;20107;-51
2022/09/05 04:11:48;;;;;;;12.73;3.58;;;;;;;26.28;46.61;101127.00;5075518;28;20466;-48
2022/09/05 04:14:37;;;;;;;14.88;3.78;;;;;;;26.31;46.82;101131.44;5092985;28;20032;-51
2022/09/05 04:17:24;;;;;;;15.43;3.80;;;;;;;26.28;46.53;101128.78;5093065;28;20476;-48
2022/09/05 04:20:01;;;;;;;13.20;3.65;;;;;;;26.30;46.95;101125.28;5059629;28;20203;-51
2022/09/05 04:22:42;;;;;;;12.95;3.70;;;;;;;26.27;47.02;101116.50;5075320;28;20031;-48
2022/09/05 04:25:34;;;;;;;14.00;2.95;;;;;;;26.28;47.05;101120.88;5075306;28;20020;-52
2022/09/05 04:28:31;;;;;;;19.27;3.90;;;;;;;26.31;46.99;101115.66;5066335;28;20039;-49
2022/09/05 04:31:03;;;;;;;15.32;3.40;;;;;;;26.37;47.08;101115.66;5087111;28;20538;-48
2022/09/05 04:33:38;;;;;;;15.02;3.47;;;;;;;26.34;47.09;101113.91;5092440;28;20052;-50
2022/09/05 04:36:27;;;;;;;14.18;3.42;;;;;;;26.33;46.93;101125.28;5093075;28;20016;-50
2022/09/05 04:39:18;;;;;;;14.20;3.78;;;;;;;26.38;47.01;101136.72;5085363;28;20032;-47
2022/09/05 04:42:05;;;;;;;14.50;3.95;;;;;;;26.31;47.14;101137.56;5084461;28;20089;-47
2022/09/05 04:44:46;;;;;;;18.83;4.63;;;;;;;26.24;47.24;101136.63;5086079;28;20036;-49
2022/09/05 04:47:19;;;;;;;16.02;4.05;;;;;;;26.20;47.49;101140.09;5092776;28;20492;-50
2022/09/05 04:49:57;;;;;;;16.85;3.90;;;;;;;26.27;47.21;101134.91;5074781;28;20050;-48
2022/09/05 04:52:48;;;;;;;12.85;4.00;;;;;;;26.27;47.38;101140.16;5074811;28;20049;-47
2022/09/05 04:55:22;;;;;;;16.55;4.05;;;;;;;26.33;47.15;101137.53;5074486;28;20032;-49
2022/09/05 04:57:53;;;;;;;15.68;3.80;;;;;;;26.35;47.19;101149.84;5092641;28;20032;-47
2022/09/05 05:00:32;;;;;;;16.73;4.30;;;;;;;26.41;47.41;101145.47;5092325;28;20039;-47
2022/09/05 05:03:22;;;;;;;21.38;4.07;;;;;;;26.34;47.38;101137.56;5092265;28;20122;-47
2022/09/05 05:06:09;;;;;;;15.93;3.83;;;;;;;26.30;47.63;101151.56;5083236;28;20036;-47
2022/09/05 05:09:03;;;;;;;15.32;3.72;;;;;;;26.30;47.53;101154.19;5082704;28;20127;-48
2022/09/05 05:11:43;;;;;;;18.58;3.83;;;;;;;26.30;47.68;101154.19;5092650;28;20056;-52
2022/09/05 05:14:26;;;;;;;15.65;3.65;;;;;;;26.26;47.95;101164.69;5092663;28;20063;-48
2022/09/05 05:17:23;;;;;;;20.65;4.78;;;;;;;26.27;47.65;101163.84;5092375;28;20469;-49
2022/09/05 05:19:57;;;;;;;17.75;4.45;;;;;;;26.26;47.97;101175.22;5074377;28;20028;-50
2022/09/05 05:22:26;;;;;;;19.27;3.90;;;;;;;26.23;48.17;101182.22;5074491;28;20024;-51
2022/09/05 05:24:56;;;;;;;18.10;4.35;;;;;;;26.19;47.78;101188.31;5091909;28;20483;-51
2022/09/05 05:27:31;;;;;;;14.27;3.97;;;;;;;26.23;47.80;101189.19;5091941;28;20481;-51
2022/09/05 05:30:10;;;;;;;16.88;4.13;;;;;;;26.21;47.98;101188.34;5074435;28;20032;-51
2022/09/05 05:32:43;;;;;;;17.13;4.25;;;;;;;26.24;47.69;101168.19;5092180;28;20036;-52
2022/09/05 05:35:14;;;;;;;12.43;3.50;;;;;;;26.27;47.85;101172.59;5074318;28;20035;-52
2022/09/05 05:37:46;;;;;;;18.80;4.75;;;;;;;26.29;47.72;101170.84;5074505;28;20107;-50
2022/09/05 05:40:19;;;;;;;22.27;4.70;;;;;;;26.21;47.81;101165.53;5073973;28;20035;-52
2022/09/05 05:42:49;;;;;;;19.10;3.83;;;;;;;26.15;47.85;101141.81;5092179;28;20024;-51
2022/09/05 05:45:19;;;;;;;11.40;3.50;;;;;;;26.31;47.56;101169.13;5074061;28;20033;-49
2022/09/05 05:47:51;;;;;;;19.70;4.60;;;;;;;26.24;47.66;101181.34;5095492;28;20032;-52
2022/09/05 05:50:32;;;;;;;12.82;3.83;;;;;;;26.18;47.97;101186.53;5077943;28;20492;-51
2022/09/05 05:53:20;;;;;;;16.02;3.83;;;;;;;26.21;48.01;101168.16;5077918;28;20028;-50
2022/09/05 05:56:16;;;;;;;19.67;5.45;;;;;;;26.17;48.11;101183.91;5095412;28;20036;-52
2022/09/05 05:59:00;;;;;;;15.30;3.90;;;;;;;26.07;47.84;101152.25;5077895;28;20051;-50
2022/09/05 06:02:03;;;;;;;29.33;5.45;;;;;;;26.13;48.17;101190.00;5095754;28;20031;-51
2022/09/05 06:05:09;;;;;;;15.02;3.83;;;;;;;26.12;47.93;101191.78;5074725;28;20048;-49
2022/09/05 06:07:59;;;;;;;14.32;3.85;;;;;;;26.14;48.10;101176.00;5089086;28;20051;-51
2022/09/05 06:11:06;;;;;;;16.77;4.32;;;;;;;26.15;48.28;101191.78;5085610;28;20073;-52
2022/09/05 06:13:39;;;;;;;17.13;4.03;;;;;;;26.16;48.26;101184.78;5087209;28;20485;-48
2022/09/05 06:16:26;;;;;;;15.45;3.33;;;;;;;26.08;48.20;101184.69;5095381;28;20102;-48
2022/09/05 06:19:14;;;;;;;14.00;3.75;;;;;;;26.06;48.36;101187.28;5084861;28;20473;-52
2022/09/05 06:21:50;;;;;;;19.02;4.35;;;;;;;26.03;48.53;101199.53;5085013;28;20043;-50
2022/09/05 06:24:47;;;;;;;18.30;4.25;;;;;;;25.98;48.83;101217.06;5095463;28;20071;-50
2022/09/05 06:27:53;;;;;;;13.75;4.22;;;;;;;26.06;48.50;101202.19;5070920;28;20127;-47
2022/09/05 06:30:22;;;;;;;15.55;4.18;;;;;;;26.08;48.31;101196.06;5094532;28;20059;-46
2022/09/05 07:14:22;;;;;;;22.90;4.82;;;;;;;25.16;50.96;101224.91;4992847;27;3864384;-48
2022/09/05 07:16:51;;;;;;;22.83;4.78;;;;;;;25.44;50.25;101212.16;5110058;28;20501;-46
2022/09/05 07:19:27;;;;;;;28.75;5.28;;;;;;;25.61;49.69;101218.47;5092182;28;20028;-50
2022/09/05 07:22:11;;;;;;;25.40;5.85;;;;;;;25.74;49.40;101216.81;5092622;28;20028;-50
2022/09/05 07:24:42;;;;;;;24.67;4.82;;;;;;;25.81;48.91;101209.91;5092549;28;20539;-49
2022/09/05 07:27:23;;;;;;;28.58;5.22;;;;;;;25.86;48.91;101200.28;5092045;28;20026;-50
2022/09/05 07:29:53;;;;;;;24.70;5.85;;;;;;;25.90;49.01;101209.97;5091766;28;20028;-47
2022/09/05 07:32:23;;;;;;;18.33;4.68;;;;;;;25.95;48.56;101196.84;5110150;28;20504;-49
2022/09/05 07:34:52;;;;;;;22.77;4.70;;;;;;;25.98;48.45;101199.50;5109925;28;20032;-50
2022/09/05 07:37:23;;;;;;;24.13;5.05;;;;;;;26.05;48.41;101197.81;5110050;28;20039;-46
2022/09/05 07:39:58;;;;;;;25.17;5.25;;;;;;;26.04;48.78;101189.06;5109935;28;20031;-47
2022/09/05 07:42:31;;;;;;;21.02;4.93;;;;;;;26.11;48.58;101190.03;5109694;28;20028;-50
2022/09/05 07:45:05;;;;;;;17.90;4.43;;;;;;;26.14;48.46;101187.41;5109803;28;20028;-51
2022/09/05 07:47:36;;;;;;;17.13;4.82;;;;;;;26.15;48.31;101186.53;5109578;28;20016;-51
2022/09/05 07:50:07;;;;;;;17.38;4.38;;;;;;;26.23;48.19;101198.00;5110014;28;20036;-46
2022/09/05 07:52:41;;;;;;;21.10;5.05;;;;;;;26.30;48.19;101198.91;5109487;28;20034;-52
2022/09/05 07:55:30;;;;;;;18.73;4.20;;;;;;;26.33;48.17;101195.41;5109926;28;20069;-51
2022/09/05 07:58:00;;;;;;;17.73;4.72;;;;;;;26.31;48.63;101194.53;5084859;28;20027;-48
2022/09/05 08:00:29;;;;;;;19.42;4.68;;;;;;;26.31;48.81;101205.94;5109358;28;20028;-50
2022/09/05 08:03:00;;;;;;;19.88;4.78;;;;;;;26.26;49.27;101198.88;5109581;28;20490;-50
2022/09/05 08:05:36;;;;;;;23.02;4.65;;;;;;;26.23;49.40;101194.47;5109368;28;20036;-46
2022/09/05 08:08:11;;;;;;;24.58;4.75;;;;;;;26.23;49.64;101192.72;5109189;28;20072;-47
2022/09/05 08:10:54;;;;;;;18.63;4.05;;;;;;;26.20;49.47;101186.56;5109223;28;20047;-46
2022/09/05 08:13:42;;;;;;;22.88;4.25;;;;;;;26.26;49.59;101191.84;5087032;28;20048;-47
2022/09/05 08:16:13;;;;;;;16.58;3.75;;;;;;;26.17;49.33;101186.53;5070217;28;20047;-46
2022/09/05 08:18:48;;;;;;;18.42;4.18;;;;;;;26.25;49.27;101203.25;5078046;28;20432;-46
2022/09/05 08:21:26;;;;;;;;;;;;;;;26.38;49.28;101202.47;5095889;28;20016;-46
2022/09/05 08:24:10;;;;;;;18.40;5.20;;;;;;;26.47;48.90;101192.88;5077749;28;20306;-46
2022/09/05 08:26:48;;;;;;;17.45;4.05;;;;;;;26.41;49.13;101196.34;5095513;28;20027;-47
2022/09/05 08:29:39;;;;;;;19.13;4.28;;;;;;;26.35;49.13;101196.31;5077233;28;20024;-47
2022/09/05 08:32:08;;;;;;;17.92;4.85;;;;;;;26.33;49.44;101196.31;5095585;28;20034;-46
2022/09/05 08:34:42;;;;;;;19.20;4.40;;;;;;;26.36;49.10;101193.69;5095311;28;20032;-46
2022/09/05 08:37:12;;;;;;;16.45;4.38;;;;;;;26.36;49.02;101195.44;5095059;28;20032;-46
2022/09/05 08:39:42;;;;;;;22.88;4.90;;;;;;;26.36;49.16;101187.53;5076905;28;20024;-46
2022/09/05 08:42:48;;;;;;;19.25;5.30;;;;;;;26.40;49.05;101197.22;5077200;28;20032;-48
2022/09/05 08:45:37;;;;;;;19.60;5.45;;;;;;;26.44;49.18;101191.13;5093624;28;20024;-53
2022/09/05 08:48:14;;;;;;;20.65;4.97;;;;;;;26.44;49.31;101192.84;5094630;28;20028;-48
2022/09/05 08:50:53;;;;;;;18.98;4.60;;;;;;;26.40;49.26;101186.69;5095280;28;20030;-49
2022/09/05 08:53:41;;;;;;;19.55;4.20;;;;;;;26.45;49.07;101176.19;5095020;28;20079;-50
2022/09/05 08:56:20;;;;;;;15.35;4.03;;;;;;;26.42;49.21;101184.06;5094639;28;20119;-50
2022/09/05 08:58:52;;;;;;;18.40;5.05;;;;;;;26.43;49.18;101181.47;5077213;28;20031;-49
2022/09/05 09:01:50;;;;;;;19.98;4.78;;;;;;;26.43;49.23;101177.94;5094757;28;20034;-49
2022/09/05 09:04:45;;;;;;;14.77;3.85;;;;;;;26.49;48.83;101173.59;5071830;28;20378;-51
2022/09/05 09:07:35;;;;;;;15.65;4.28;;;;;;;26.44;48.73;101175.34;5094864;28;20386;-50
2022/09/05 09:10:23;;;;;;;13.73;3.70;;;;;;;26.43;49.02;101164.78;5086184;28;20457;-49
2022/09/05 09:13:00;;;;;;;13.45;3.33;;;;;;;26.54;48.63;101171.88;5094566;28;20032;-53
2022/09/05 09:15:37;;;;;;;19.25;4.28;;;;;;;26.54;48.86;101184.16;5076760;28;20024;-51
2022/09/05 09:18:14;;;;;;;17.70;3.97;;;;;;;26.59;48.72;101173.66;5094350;28;20024;-49
2022/09/05 09:20:47;;;;;;;12.70;3.17;;;;;;;26.58;48.49;101179.78;5094515;28;20054;-50
2022/09/05 09:23:53;;;;;;;13.60;3.42;;;;;;;26.55;48.84;101172.78;5094169;28;20028;-49
2022/09/05 09:26:23;;;;;;;14.88;4.07;;;;;;;26.53;48.83;101170.13;5089281;28;20457;-54
2022/09/05 09:29:01;;;;;;;15.27;3.55;;;;;;;26.49;49.01;101164.84;5076028;28;20095;-54
2022/09/05 09:31:51;;;;;;;12.60;3.55;;;;;;;26.45;48.98;101168.31;5093977;28;20056;-55
2022/09/05 09:34:24;;;;;;;17.63;3.75;;;;;;;26.44;48.98;101169.19;5087192;28;20036;-56
2022/09/05 09:37:14;;;;;;;13.55;3.75;;;;;;;26.51;48.66;101174.47;5094249;28;20090;-56
2022/09/05 09:40:00;;;;;;;11.63;2.83;;;;;;;26.49;48.69;101170.09;5093635;28;20547;-54
2022/09/05 09:42:38;;;;;;;12.80;3.58;;;;;;;26.58;48.60;101169.25;5091678;28;20039;-56
2022/09/05 09:45:44;;;;;;;14.20;2.97;;;;;;;26.61;48.41;101180.69;5093457;28;20031;-57
2022/09/05 09:48:24;;;;;;;16.52;3.83;;;;;;;26.63;48.35;101165.78;5078959;28;20442;-56
2022/09/05 09:51:11;;;;;;;9.40;2.70;;;;;;;26.64;48.53;101167.53;5089364;28;20027;-47
2022/09/05 09:53:41;;;;;;;10.73;2.80;;;;;;;26.59;48.75;101165.75;5077442;28;20032;-51
2022/09/05 09:56:47;;;;;;;15.65;3.67;;;;;;;26.58;48.96;101175.38;5090203;28;20111;-55
2022/09/05 09:59:53;;;;;;;12.52;2.90;;;;;;;26.74;48.35;101181.63;5081673;28;20032;-54
2022/09/05 10:02:40;;;;;;;8.27;2.92;;;;;;;26.77;48.19;101179.00;5081050;28;20032;-53
2022/09/05 10:05:18;;;;;;;11.90;3.00;;;;;;;26.76;48.22;101177.25;5077062;28;20036;-57
2022/09/05 10:08:00;;;;;;;9.82;2.92;;;;;;;26.84;48.11;101159.75;5072590;28;20039;-57
2022/09/05 10:10:35;;;;;;;10.38;2.78;;;;;;;26.90;48.14;101164.16;5086338;28;20478;-53
2022/09/05 10:13:15;;;;;;;8.90;2.72;;;;;;;26.89;48.13;101165.03;5090238;28;20516;-54
2022/09/05 10:16:06;;;;;;;9.52;2.80;;;;;;;26.98;47.94;101157.19;5070045;28;20123;-56
2022/09/05 10:18:56;;;;;;;15.52;4.43;;;;;;;27.01;48.13;101158.06;5080915;28;20048;-56
2022/09/05 10:22:02;;;;;;;10.07;2.88;;;;;;;27.01;48.30;101158.06;5086181;28;20024;-58
2022/09/05 10:24:50;;;;;;;10.27;3.05;;;;;;;27.02;48.33;101157.19;5082285;28;20064;-57
2022/09/05 10:27:45;;;;;;;12.57;3.33;;;;;;;26.96;48.52;101152.81;5079529;28;20111;-57
2022/09/05 10:30:39;;;;;;;8.98;2.72;;;;;;;26.97;48.32;101149.28;5090138;28;20023;-57
2022/09/05 10:33:28;;;;;;;9.50;3.27;;;;;;;26.98;48.59;101145.75;5078137;28;20036;-57
2022/09/05 10:36:17;;;;;;;11.25;2.92;;;;;;;26.97;48.95;101141.41;5088535;28;20028;-57
2022/09/05 10:38:49;;;;;;;13.02;3.72;;;;;;;27.04;48.73;101145.78;5071660;28;20043;-58
2022/09/05 10:41:20;;;;;;;14.15;3.22;;;;;;;26.96;49.13;101140.50;5089600;28;20024;-56
2022/09/05 10:43:58;;;;;;;10.70;2.13;;;;;;;26.94;49.39;101146.66;5090215;28;20031;-47
2022/09/05 10:46:43;;;;;;;7.82;2.30;;;;;;;26.88;49.49;101143.97;5089202;28;20048;-54
2022/09/05 10:49:14;;;;;;;12.32;2.65;;;;;;;26.96;49.36;101143.13;5088307;28;20047;-53
2022/09/05 10:51:41;;;;;;;11.82;2.95;;;;;;;26.94;49.79;101142.25;5076380;28;20039;-51
2022/09/05 10:54:31;;;;;;;12.60;2.92;;;;;;;26.97;49.74;101136.13;5078139;28;20039;-50
2022/09/05 10:57:07;;;;;;;8.65;2.95;;;;;;;27.01;49.76;101129.97;5059015;28;20658;-54
2022/09/05 10:59:46;;;;;;;12.63;4.38;;;;;;;27.03;49.68;101130.88;5079735;28;20028;-50
2022/09/05 11:02:22;;;;;;;13.05;3.38;;;;;;;26.95;49.78;101128.22;5086999;28;20110;-51
2022/09/05 11:04:54;;;;;;;14.38;2.85;;;;;;;27.05;50.17;101121.22;5089569;28;20036;-53
2022/09/05 11:07:46;;;;;;;13.73;3.50;;;;;;;27.05;49.89;101108.06;5089930;28;20085;-50
2022/09/05 11:10:19;;;;;;;13.35;3.45;;;;;;;27.05;49.97;101110.69;5082747;28;20036;-51
2022/09/05 11:13:09;;;;;;;14.77;3.28;;;;;;;27.08;49.66;101102.81;5067015;28;20060;-53
2022/09/05 11:15:45;;;;;;;9.68;2.45;;;;;;;27.11;49.87;101109.81;5064684;28;20032;-53
2022/09/05 11:18:31;;;;;;;10.55;3.17;;;;;;;27.05;49.70;101105.41;5069535;28;20117;-50
2022/09/05 11:21:07;;;;;;;10.05;3.45;;;;;;;27.12;49.54;101115.09;5065907;28;20017;-49
2022/09/05 11:23:42;;;;;;;9.77;2.88;;;;;;;27.08;49.77;101115.97;5069248;28;20071;-50
2022/09/05 11:26:24;;;;;;;7.45;2.47;;;;;;;27.18;49.42;101108.06;5068691;28;20482;-50
2022/09/05 11:28:58;;;;;;;12.57;2.90;;;;;;;27.10;49.65;101103.69;5065734;28;20108;-53
2022/09/05 11:31:38;;;;;;;10.63;2.47;;;;;;;27.11;49.21;101107.19;5066966;28;20024;-51
2022/09/05 11:34:30;;;;;;;14.82;3.92;;;;;;;27.25;48.87;101123.03;5069108;28;20483;-50
2022/09/05 11:37:01;;;;;;;10.93;3.17;;;;;;;27.19;48.98;101113.34;5060201;28;20041;-52
2022/09/05 11:40:07;;;;;;;12.35;3.17;;;;;;;27.16;49.16;101108.06;5070004;28;20020;-51
2022/09/05 11:42:45;;;;;;;12.95;3.40;;;;;;;27.18;49.04;101105.44;5062937;28;20437;-51
2022/09/05 11:45:17;;;;;;;16.02;4.00;;;;;;;27.23;48.79;101111.59;5069201;28;20039;-50
2022/09/05 11:48:08;;;;;;;9.77;3.10;;;;;;;27.23;48.96;101107.19;5065480;28;20129;-50
2022/09/05 11:51:00;;;;;;;14.25;3.60;;;;;;;27.21;49.30;101098.44;5060900;28;20052;-53
2022/09/05 11:53:51;;;;;;;12.00;3.67;;;;;;;27.23;49.18;101103.69;5061961;28;20388;-51
2022/09/05 11:56:47;;;;;;;12.15;3.55;;;;;;;27.25;49.21;101094.91;5072556;28;20029;-52
2022/09/05 11:59:37;;;;;;;15.60;3.42;;;;;;;27.27;48.84;101089.66;5069088;28;20041;-49
2022/09/05 12:02:32;;;;;;;9.80;3.15;;;;;;;27.28;48.91;101086.16;5065213;28;20029;-47
2022/09/05 12:05:26;;;;;;;14.43;3.57;;;;;;;27.31;48.70;101088.75;5071515;28;20032;-50
2022/09/05 12:08:05;;;;;;;9.57;2.67;;;;;;;27.34;48.58;101086.13;5072870;28;20304;-48
2022/09/05 12:11:00;;;;;;;10.73;2.88;;;;;;;27.38;48.53;101081.78;5071911;28;20119;-49
2022/09/05 12:13:34;;;;;;;11.35;3.40;;;;;;;27.38;48.67;101080.00;5080154;28;20055;-52
2022/09/05 12:16:18;;;;;;;12.63;3.30;;;;;;;27.36;48.54;101076.50;5089451;28;20027;-48
2022/09/05 12:19:12;;;;;;;14.13;3.25;;;;;;;27.41;48.63;101080.00;5074814;28;20505;-48
2022/09/05 12:21:50;;;;;;;10.23;3.00;;;;;;;27.42;48.26;101070.34;5050539;28;20380;-50
2022/09/05 12:24:27;;;;;;;12.48;3.20;;;;;;;27.33;48.27;101049.28;5074782;28;20024;-51
2022/09/05 12:27:08;;;;;;;9.98;2.83;;;;;;;27.43;48.21;101075.63;5074683;28;20024;-47
2022/09/05 12:29:39;;;;;;;9.43;2.92;;;;;;;27.43;48.14;101096.69;5092634;28;20127;-47
2022/09/05 12:32:14;;;;;;;10.65;2.80;;;;;;;27.43;48.09;101083.53;5073403;28;20027;-48
2022/09/05 12:34:51;;;;;;;;;;;;;;;27.53;47.91;101081.81;5075570;28;20438;-47
2022/09/05 12:37:29;;;;;;;8.43;2.78;;;;;;;27.53;47.90;101070.38;5075843;28;20196;-48
2022/09/05 12:40:08;;;;;;;11.60;2.80;;;;;;;27.46;48.10;101068.63;5092951;28;20035;-48
2022/09/05 12:42:54;;;;;;;11.75;3.25;;;;;;;27.43;48.35;101067.72;5073526;28;20494;-50
2022/09/05 12:45:42;;;;;;;10.88;2.92;;;;;;;27.45;47.94;101065.06;5074309;28;20020;-50
2022/09/05 12:48:10;;;;;;;18.63;4.03;;;;;;;27.46;47.98;101064.22;5092518;28;20064;-47
2022/09/05 12:50:59;;;;;;;10.98;3.38;;;;;;;27.40;48.34;101064.19;5089634;28;20489;-49
2022/09/05 12:53:40;;;;;;;10.95;3.35;;;;;;;27.45;48.17;101059.81;5083039;28;20154;-51
2022/09/05 12:56:30;;;;;;;11.13;3.17;;;;;;;27.47;48.30;101062.50;5090932;28;20378;-48
2022/09/05 12:59:00;;;;;;;10.70;3.00;;;;;;;27.46;48.04;101077.41;5079239;28;20032;-48
2022/09/05 13:01:37;;;;;;;12.00;2.97;;;;;;;27.43;48.43;101067.72;5090051;28;20066;-49
2022/09/05 13:04:24;;;;;;;11.32;3.05;;;;;;;27.46;47.92;101081.81;5074891;28;20032;-50
2022/09/05 13:07:08;;;;;;;11.88;3.15;;;;;;;27.43;48.27;101083.53;5073956;28;20107;-50
2022/09/05 13:09:42;;;;;;;9.65;3.17;;;;;;;27.50;48.29;101075.63;5092029;28;20024;-52
2022/09/05 13:12:18;;;;;;;11.85;3.40;;;;;;;27.45;48.15;101086.16;5087256;28;20056;-49
2022/09/05 13:14:58;;;;;;;14.80;3.60;;;;;;;27.51;48.23;101080.03;5051891;28;20033;-51